Spring's Hourly Summary for Saturday, May 12, 2018
Hour Temp
(f)
RH
(%)
Solar Rad.
(MJ/m2)
Rainfall
(in)
Wind
(mph)
5/12/2018 12:00 AM 76 77 0 0 5.91
5/12/2018 1:00 AM 76 79 0 0 5.13
5/12/2018 2:00 AM 75 81 0 0 4.24
5/12/2018 3:00 AM 75 84 0 0 3.09
5/12/2018 4:00 AM 74 85 0 0 2.89
5/12/2018 5:00 AM 75 86 0 0 3.17
5/12/2018 6:00 AM 74 87 0 0 3.32
5/12/2018 7:00 AM 73 89 0.03 0 2.22
5/12/2018 8:00 AM 74 84 0.34 0 2.97
5/12/2018 9:00 AM 77 75 0.94 0 6.4
5/12/2018 10:00 AM 79 67 1.66 0 7.44
5/12/2018 11:00 AM 81 59 1.95 0 7.36
5/12/2018 12:00 PM 84 55 2.69 0 6.72
5/12/2018 1:00 PM 86 48 3 0 6.49
5/12/2018 2:00 PM 87 46 3.11 0 8.24
5/12/2018 3:00 PM 88 46 2.85 0 7.39
5/12/2018 4:00 PM 88 43 2.37 0 8.19
5/12/2018 5:00 PM 87 47 1.16 0 7.62
5/12/2018 6:00 PM 87 53 1.6 0 7.63
5/12/2018 7:00 PM 85 56 0.73 0 8.64
5/12/2018 8:00 PM 82 60 0.3 0 7.45
5/12/2018 9:00 PM 80 68 0.01 0 6.56
5/12/2018 10:00 PM 78 75 0 0 5.95
5/12/2018 11:00 PM 77 79 0 0 5.59
Data Summary 79 67 22.74 0.00 5.86